TGPY/GND METAR and TAF weather

Enter ICAO airport designator
Station Type Date Time Source
TGPY METAR 2019/05/20 10:00 UTC NOAA

TGPY 201000Z 07005KT 9999 FEW018 26/23 Q1013 NOSIG


Station Type Date Time Source
TGPY Decoded METAR 2019/05/20 10:00 UTC NOAA

Point Salines Airport, Grenada (TGPY) 12-00N 061-47W 7M
May 20, 2019 - 06:00 AM EDT / 2019.05.20 1000 UTC
Wind: from the ENE (070 degrees) at 6 MPH (5 KT):0
Visibility: greater than 7 mile(s):0
Sky conditions: mostly clear
Temperature: 78 F (26 C)
Dew Point: 73 F (23 C)
Relative Humidity: 83%
Pressure (altimeter): 29.91 in. Hg (1013 hPa)
ob: TGPY 201000Z 07005KT 9999 FEW018 26/23 Q1013 NOSIG
cycle: 10

Station Type Date Time Source
TGPY TAF 2019/05/20 06:59 UTC NOAA

TAF TGPY 200400Z 2006/2106 09014KT 9999 SCT019

Example: see airport list